sensor_id;sensor_type;location;lat;lon;timestamp;P1;durP1;ratioP1;P2;durP2;ratioP2
30080;SDS011;16902;50.816;12.828;2023-06-05T00:00:54;8.10;;;7.70;;
30080;SDS011;16902;50.816;12.828;2023-06-05T00:05:56;7.70;;;7.47;;
30080;SDS011;16902;50.816;12.828;2023-06-05T00:10:58;8.15;;;7.85;;
30080;SDS011;16902;50.816;12.828;2023-06-05T00:15:59;7.50;;;7.20;;
30080;SDS011;16902;50.816;12.828;2023-06-05T00:21:04;7.93;;;7.60;;
30080;SDS011;16902;50.816;12.828;2023-06-05T00:26:06;8.10;;;7.70;;
30080;SDS011;16902;50.816;12.828;2023-06-05T00:31:08;7.25;;;6.95;;
30080;SDS011;16902;50.816;12.828;2023-06-05T00:36:10;7.18;;;6.97;;
30080;SDS011;16902;50.816;12.828;2023-06-05T00:41:12;7.10;;;6.90;;
30080;SDS011;16902;50.816;12.828;2023-06-05T00:46:14;7.28;;;6.97;;
30080;SDS011;16902;50.816;12.828;2023-06-05T00:51:16;6.88;;;6.57;;
30080;SDS011;16902;50.816;12.828;2023-06-05T00:56:19;7.07;;;6.68;;
30080;SDS011;16902;50.816;12.828;2023-06-05T01:01:22;6.93;;;6.63;;
30080;SDS011;16902;50.816;12.828;2023-06-05T01:06:29;7.47;;;7.07;;
30080;SDS011;16902;50.816;12.828;2023-06-05T01:17:16;6.55;;;6.35;;
30080;SDS011;16902;50.816;12.828;2023-06-05T01:22:22;6.13;;;5.93;;
30080;SDS011;16902;50.816;12.828;2023-06-05T01:28:02;6.38;;;6.18;;
30080;SDS011;16902;50.816;12.828;2023-06-05T01:32:56;7.30;;;7.00;;
30080;SDS011;16902;50.816;12.828;2023-06-05T01:38:04;5.78;;;5.57;;
30080;SDS011;16902;50.816;12.828;2023-06-05T01:43:07;5.70;;;5.40;;
30080;SDS011;16902;50.816;12.828;2023-06-05T01:48:11;6.40;;;6.20;;
30080;SDS011;16902;50.816;12.828;2023-06-05T01:53:12;5.80;;;5.53;;
30080;SDS011;16902;50.816;12.828;2023-06-05T01:58:14;5.80;;;5.60;;
30080;SDS011;16902;50.816;12.828;2023-06-05T02:03:16;5.50;;;5.30;;
30080;SDS011;16902;50.816;12.828;2023-06-05T02:08:19;5.50;;;5.30;;
30080;SDS011;16902;50.816;12.828;2023-06-05T02:13:24;5.47;;;5.28;;
30080;SDS011;16902;50.816;12.828;2023-06-05T02:18:26;5.47;;;5.20;;
30080;SDS011;16902;50.816;12.828;2023-06-05T02:23:28;5.55;;;5.35;;
30080;SDS011;16902;50.816;12.828;2023-06-05T02:28:30;5.78;;;5.47;;
30080;SDS011;16902;50.816;12.828;2023-06-05T02:33:33;5.13;;;4.95;;
30080;SDS011;16902;50.816;12.828;2023-06-05T02:38:35;5.50;;;5.30;;
30080;SDS011;16902;50.816;12.828;2023-06-05T02:43:37;5.00;;;4.90;;
30080;SDS011;16902;50.816;12.828;2023-06-05T02:48:39;5.00;;;4.80;;
30080;SDS011;16902;50.816;12.828;2023-06-05T02:53:41;5.30;;;5.10;;
30080;SDS011;16902;50.816;12.828;2023-06-05T02:58:43;5.85;;;5.57;;
30080;SDS011;16902;50.816;12.828;2023-06-05T03:03:45;4.82;;;4.72;;
30080;SDS011;16902;50.816;12.828;2023-06-05T03:08:51;5.30;;;5.10;;
30080;SDS011;16902;50.816;12.828;2023-06-05T03:13:57;4.97;;;4.78;;
30080;SDS011;16902;50.816;12.828;2023-06-05T03:19:02;5.43;;;5.22;;
30080;SDS011;16902;50.816;12.828;2023-06-05T03:24:04;5.40;;;5.15;;
30080;SDS011;16902;50.816;12.828;2023-06-05T03:29:10;5.43;;;5.13;;
30080;SDS011;16902;50.816;12.828;2023-06-05T03:34:13;5.40;;;5.10;;
30080;SDS011;16902;50.816;12.828;2023-06-05T03:39:15;5.03;;;4.82;;
30080;SDS011;16902;50.816;12.828;2023-06-05T03:44:18;5.22;;;5.03;;
30080;SDS011;16902;50.816;12.828;2023-06-05T03:49:19;5.15;;;4.95;;
30080;SDS011;16902;50.816;12.828;2023-06-05T03:54:23;5.28;;;4.88;;
30080;SDS011;16902;50.816;12.828;2023-06-05T03:59:27;5.95;;;5.65;;
30080;SDS011;16902;50.816;12.828;2023-06-05T04:04:33;4.53;;;4.32;;
30080;SDS011;16902;50.816;12.828;2023-06-05T04:09:35;5.60;;;5.30;;
30080;SDS011;16902;50.816;12.828;2023-06-05T04:14:37;5.03;;;4.82;;
30080;SDS011;16902;50.816;12.828;2023-06-05T04:19:40;4.97;;;4.78;;
30080;SDS011;16902;50.816;12.828;2023-06-05T04:24:42;5.50;;;5.10;;
30080;SDS011;16902;50.816;12.828;2023-06-05T04:29:44;5.38;;;5.18;;
30080;SDS011;16902;50.816;12.828;2023-06-05T04:34:46;5.38;;;5.18;;
30080;SDS011;16902;50.816;12.828;2023-06-05T04:39:48;5.88;;;5.65;;
30080;SDS011;16902;50.816;12.828;2023-06-05T04:44:57;5.97;;;5.68;;
30080;SDS011;16902;50.816;12.828;2023-06-05T04:50:02;6.38;;;6.07;;
30080;SDS011;16902;50.816;12.828;2023-06-05T04:55:07;6.47;;;6.15;;
30080;SDS011;16902;50.816;12.828;2023-06-05T05:00:09;6.80;;;6.50;;
30080;SDS011;16902;50.816;12.828;2023-06-05T05:05:12;5.53;;;5.32;;
30080;SDS011;16902;50.816;12.828;2023-06-05T05:10:16;5.82;;;5.55;;
30080;SDS011;16902;50.816;12.828;2023-06-05T05:15:18;5.90;;;5.70;;
30080;SDS011;16902;50.816;12.828;2023-06-05T05:20:22;5.75;;;5.47;;
30080;SDS011;16902;50.816;12.828;2023-06-05T05:25:24;6.13;;;5.93;;
30080;SDS011;16902;50.816;12.828;2023-06-05T05:30:27;6.80;;;6.55;;
30080;SDS011;16902;50.816;12.828;2023-06-05T05:35:28;8.65;;;8.25;;
30080;SDS011;16902;50.816;12.828;2023-06-05T05:40:33;8.98;;;8.57;;
30080;SDS011;16902;50.816;12.828;2023-06-05T05:45:34;9.68;;;9.30;;
30080;SDS011;16902;50.816;12.828;2023-06-05T05:50:39;9.30;;;9.00;;
30080;SDS011;16902;50.816;12.828;2023-06-05T05:55:42;10.10;;;9.70;;
30080;SDS011;16902;50.816;12.828;2023-06-05T06:00:43;9.98;;;9.57;;
30080;SDS011;16902;50.816;12.828;2023-06-05T06:05:45;11.02;;;10.60;;
30080;SDS011;16902;50.816;12.828;2023-06-05T06:10:47;11.10;;;10.60;;
30080;SDS011;16902;50.816;12.828;2023-06-05T06:15:49;11.43;;;10.93;;
30080;SDS011;16902;50.816;12.828;2023-06-05T06:20:51;11.52;;;11.13;;
30080;SDS011;16902;50.816;12.828;2023-06-05T06:25:52;10.95;;;10.55;;
30080;SDS011;16902;50.816;12.828;2023-06-05T06:30:54;11.40;;;10.90;;
30080;SDS011;16902;50.816;12.828;2023-06-05T06:35:56;11.15;;;10.70;;
30080;SDS011;16902;50.816;12.828;2023-06-05T06:40:59;11.38;;;10.88;;
30080;SDS011;16902;50.816;12.828;2023-06-05T06:46:01;11.13;;;10.73;;
30080;SDS011;16902;50.816;12.828;2023-06-05T06:51:03;11.98;;;11.48;;
30080;SDS011;16902;50.816;12.828;2023-06-05T06:56:05;12.10;;;11.52;;
30080;SDS011;16902;50.816;12.828;2023-06-05T07:01:06;12.40;;;11.65;;
30080;SDS011;16902;50.816;12.828;2023-06-05T07:06:09;12.52;;;12.02;;
30080;SDS011;16902;50.816;12.828;2023-06-05T07:11:11;12.40;;;11.80;;
30080;SDS011;16902;50.816;12.828;2023-06-05T07:16:13;12.27;;;11.77;;
30080;SDS011;16902;50.816;12.828;2023-06-05T07:21:14;11.95;;;11.45;;
30080;SDS011;16902;50.816;12.828;2023-06-05T07:26:16;12.52;;;12.00;;
30080;SDS011;16902;50.816;12.828;2023-06-05T07:31:18;11.93;;;11.45;;
30080;SDS011;16902;50.816;12.828;2023-06-05T07:36:22;12.63;;;12.13;;
30080;SDS011;16902;50.816;12.828;2023-06-05T07:41:24;12.20;;;11.70;;
30080;SDS011;16902;50.816;12.828;2023-06-05T07:46:27;12.80;;;12.30;;
30080;SDS011;16902;50.816;12.828;2023-06-05T07:51:29;11.73;;;11.23;;
30080;SDS011;16902;50.816;12.828;2023-06-05T07:56:35;11.60;;;11.20;;
30080;SDS011;16902;50.816;12.828;2023-06-05T08:01:37;12.20;;;11.70;;
30080;SDS011;16902;50.816;12.828;2023-06-05T08:06:39;12.13;;;11.63;;
30080;SDS011;16902;50.816;12.828;2023-06-05T08:11:41;12.35;;;11.85;;
30080;SDS011;16902;50.816;12.828;2023-06-05T08:16:43;12.75;;;12.25;;
30080;SDS011;16902;50.816;12.828;2023-06-05T08:21:45;12.40;;;11.93;;
30080;SDS011;16902;50.816;12.828;2023-06-05T08:26:47;12.60;;;12.10;;
30080;SDS011;16902;50.816;12.828;2023-06-05T08:31:48;12.75;;;12.25;;
30080;SDS011;16902;50.816;12.828;2023-06-05T08:36:50;13.23;;;12.52;;
30080;SDS011;16902;50.816;12.828;2023-06-05T08:41:52;12.80;;;12.30;;
30080;SDS011;16902;50.816;12.828;2023-06-05T08:46:59;13.38;;;12.77;;
30080;SDS011;16902;50.816;12.828;2023-06-05T08:52:03;12.77;;;12.27;;
30080;SDS011;16902;50.816;12.828;2023-06-05T08:57:08;13.07;;;12.57;;
30080;SDS011;16902;50.816;12.828;2023-06-05T09:02:10;12.95;;;12.35;;
30080;SDS011;16902;50.816;12.828;2023-06-05T09:07:12;12.73;;;12.23;;
30080;SDS011;16902;50.816;12.828;2023-06-05T09:12:13;13.30;;;12.50;;
30080;SDS011;16902;50.816;12.828;2023-06-05T09:17:15;12.80;;;12.20;;
30080;SDS011;16902;50.816;12.828;2023-06-05T09:22:31;13.20;;;12.70;;
30080;SDS011;16902;50.816;12.828;2023-06-05T09:27:35;13.07;;;12.48;;
30080;SDS011;16902;50.816;12.828;2023-06-05T09:32:38;13.15;;;12.65;;
30080;SDS011;16902;50.816;12.828;2023-06-05T09:37:40;13.15;;;12.52;;
30080;SDS011;16902;50.816;12.828;2023-06-05T09:42:46;13.05;;;12.55;;
30080;SDS011;16902;50.816;12.828;2023-06-05T09:47:48;13.00;;;12.40;;
30080;SDS011;16902;50.816;12.828;2023-06-05T09:52:55;13.07;;;12.57;;
30080;SDS011;16902;50.816;12.828;2023-06-05T09:57:58;12.57;;;12.07;;
30080;SDS011;16902;50.816;12.828;2023-06-05T10:03:01;13.05;;;12.45;;
30080;SDS011;16902;50.816;12.828;2023-06-05T10:08:09;14.65;;;13.85;;
30080;SDS011;16902;50.816;12.828;2023-06-05T10:13:12;13.95;;;13.30;;
30080;SDS011;16902;50.816;12.828;2023-06-05T10:18:14;13.75;;;13.18;;
30080;SDS011;16902;50.816;12.828;2023-06-05T10:23:16;13.45;;;12.85;;
30080;SDS011;16902;50.816;12.828;2023-06-05T10:28:29;13.63;;;13.02;;
30080;SDS011;16902;50.816;12.828;2023-06-05T10:33:48;13.52;;;13.02;;
30080;SDS011;16902;50.816;12.828;2023-06-05T10:38:59;13.38;;;12.88;;
30080;SDS011;16902;50.816;12.828;2023-06-05T10:44:01;14.65;;;14.05;;
30080;SDS011;16902;50.816;12.828;2023-06-05T10:59:24;14.30;;;13.70;;
30080;SDS011;16902;50.816;12.828;2023-06-05T11:15:08;13.57;;;13.05;;
30080;SDS011;16902;50.816;12.828;2023-06-05T11:25:25;13.38;;;12.88;;
30080;SDS011;16902;50.816;12.828;2023-06-05T11:30:29;12.85;;;12.35;;
30080;SDS011;16902;50.816;12.828;2023-06-05T11:35:49;13.88;;;13.20;;
30080;SDS011;16902;50.816;12.828;2023-06-05T11:40:53;13.30;;;12.80;;
30080;SDS011;16902;50.816;12.828;2023-06-05T11:45:58;13.70;;;13.18;;
30080;SDS011;16902;50.816;12.828;2023-06-05T11:51:04;14.15;;;13.55;;
30080;SDS011;16902;50.816;12.828;2023-06-05T11:56:13;13.82;;;13.13;;
30080;SDS011;16902;50.816;12.828;2023-06-05T12:01:18;13.18;;;12.68;;
30080;SDS011;16902;50.816;12.828;2023-06-05T12:06:24;12.45;;;11.95;;
30080;SDS011;16902;50.816;12.828;2023-06-05T12:11:26;12.15;;;11.65;;
30080;SDS011;16902;50.816;12.828;2023-06-05T12:16:38;11.88;;;11.38;;
30080;SDS011;16902;50.816;12.828;2023-06-05T12:21:43;12.85;;;12.35;;
30080;SDS011;16902;50.816;12.828;2023-06-05T12:31:59;12.48;;;11.98;;
30080;SDS011;16902;50.816;12.828;2023-06-05T12:37:03;12.38;;;11.88;;
30080;SDS011;16902;50.816;12.828;2023-06-05T12:42:06;12.88;;;12.38;;
30080;SDS011;16902;50.816;12.828;2023-06-05T12:47:08;12.85;;;12.35;;
30080;SDS011;16902;50.816;12.828;2023-06-05T12:52:11;12.80;;;12.30;;
30080;SDS011;16902;50.816;12.828;2023-06-05T12:57:13;12.98;;;12.48;;
30080;SDS011;16902;50.816;12.828;2023-06-05T13:02:14;12.95;;;12.45;;
30080;SDS011;16902;50.816;12.828;2023-06-05T13:07:17;12.57;;;12.07;;
30080;SDS011;16902;50.816;12.828;2023-06-05T13:12:18;12.13;;;11.63;;
30080;SDS011;16902;50.816;12.828;2023-06-05T13:17:20;12.75;;;12.25;;
30080;SDS011;16902;50.816;12.828;2023-06-05T13:22:23;14.05;;;13.45;;
30080;SDS011;16902;50.816;12.828;2023-06-05T13:27:25;13.15;;;12.63;;
30080;SDS011;16902;50.816;12.828;2023-06-05T13:32:26;13.77;;;13.25;;
30080;SDS011;16902;50.816;12.828;2023-06-05T13:37:28;13.73;;;13.13;;
30080;SDS011;16902;50.816;12.828;2023-06-05T13:42:30;14.40;;;13.75;;
30080;SDS011;16902;50.816;12.828;2023-06-05T13:47:31;14.02;;;13.43;;
30080;SDS011;16902;50.816;12.828;2023-06-05T13:52:33;14.45;;;13.75;;
30080;SDS011;16902;50.816;12.828;2023-06-05T13:57:35;14.23;;;13.50;;
30080;SDS011;16902;50.816;12.828;2023-06-05T14:02:37;14.43;;;13.82;;
30080;SDS011;16902;50.816;12.828;2023-06-05T14:07:39;14.02;;;13.43;;
30080;SDS011;16902;50.816;12.828;2023-06-05T14:12:50;14.02;;;13.43;;
30080;SDS011;16902;50.816;12.828;2023-06-05T14:17:53;14.20;;;13.60;;
30080;SDS011;16902;50.816;12.828;2023-06-05T14:22:55;13.85;;;13.25;;
30080;SDS011;16902;50.816;12.828;2023-06-05T14:27:58;14.20;;;13.57;;
30080;SDS011;16902;50.816;12.828;2023-06-05T14:33:00;14.50;;;13.90;;
30080;SDS011;16902;50.816;12.828;2023-06-05T14:38:01;14.43;;;13.82;;
30080;SDS011;16902;50.816;12.828;2023-06-05T14:43:03;14.10;;;13.50;;
30080;SDS011;16902;50.816;12.828;2023-06-05T14:48:05;14.20;;;13.60;;
30080;SDS011;16902;50.816;12.828;2023-06-05T14:53:08;13.93;;;13.32;;
30080;SDS011;16902;50.816;12.828;2023-06-05T14:58:10;14.52;;;13.93;;
30080;SDS011;16902;50.816;12.828;2023-06-05T15:03:12;14.40;;;13.80;;
30080;SDS011;16902;50.816;12.828;2023-06-05T15:08:14;14.40;;;13.80;;
30080;SDS011;16902;50.816;12.828;2023-06-05T15:13:15;13.85;;;13.27;;
30080;SDS011;16902;50.816;12.828;2023-06-05T15:18:17;13.55;;;13.05;;
30080;SDS011;16902;50.816;12.828;2023-06-05T15:23:19;14.18;;;13.57;;
30080;SDS011;16902;50.816;12.828;2023-06-05T15:28:21;13.57;;;13.07;;
30080;SDS011;16902;50.816;12.828;2023-06-05T15:33:23;13.50;;;12.98;;
30080;SDS011;16902;50.816;12.828;2023-06-05T15:38:25;13.90;;;13.30;;
30080;SDS011;16902;50.816;12.828;2023-06-05T15:43:26;13.85;;;13.35;;
30080;SDS011;16902;50.816;12.828;2023-06-05T15:48:28;14.18;;;13.57;;
30080;SDS011;16902;50.816;12.828;2023-06-05T15:53:30;13.77;;;13.18;;
30080;SDS011;16902;50.816;12.828;2023-06-05T15:58:43;14.10;;;13.55;;
30080;SDS011;16902;50.816;12.828;2023-06-05T16:03:45;13.75;;;13.15;;
30080;SDS011;16902;50.816;12.828;2023-06-05T16:08:47;13.27;;;12.77;;
30080;SDS011;16902;50.816;12.828;2023-06-05T16:13:48;13.95;;;13.35;;
30080;SDS011;16902;50.816;12.828;2023-06-05T16:18:50;14.10;;;13.40;;
30080;SDS011;16902;50.816;12.828;2023-06-05T16:23:52;13.40;;;12.82;;
30080;SDS011;16902;50.816;12.828;2023-06-05T16:28:54;13.85;;;13.15;;
30080;SDS011;16902;50.816;12.828;2023-06-05T16:33:55;13.77;;;13.18;;
30080;SDS011;16902;50.816;12.828;2023-06-05T16:38:57;13.95;;;13.35;;
30080;SDS011;16902;50.816;12.828;2023-06-05T16:43:59;13.80;;;13.20;;
30080;SDS011;16902;50.816;12.828;2023-06-05T16:49:01;14.65;;;14.05;;
30080;SDS011;16902;50.816;12.828;2023-06-05T16:54:03;14.15;;;13.55;;
30080;SDS011;16902;50.816;12.828;2023-06-05T16:59:10;14.75;;;14.05;;
30080;SDS011;16902;50.816;12.828;2023-06-05T17:04:12;14.15;;;13.55;;
30080;SDS011;16902;50.816;12.828;2023-06-05T17:09:15;14.25;;;13.65;;
30080;SDS011;16902;50.816;12.828;2023-06-05T17:14:18;14.20;;;13.60;;
30080;SDS011;16902;50.816;12.828;2023-06-05T17:19:20;15.55;;;14.23;;
30080;SDS011;16902;50.816;12.828;2023-06-05T17:24:23;14.70;;;14.10;;
30080;SDS011;16902;50.816;12.828;2023-06-05T17:29:27;14.38;;;13.77;;
30080;SDS011;16902;50.816;12.828;2023-06-05T17:34:28;14.40;;;13.80;;
30080;SDS011;16902;50.816;12.828;2023-06-05T17:39:30;14.57;;;13.98;;
30080;SDS011;16902;50.816;12.828;2023-06-05T17:44:32;14.68;;;14.05;;
30080;SDS011;16902;50.816;12.828;2023-06-05T17:49:34;13.77;;;13.20;;
30080;SDS011;16902;50.816;12.828;2023-06-05T17:54:36;14.27;;;13.57;;
30080;SDS011;16902;50.816;12.828;2023-06-05T17:59:38;14.52;;;13.93;;
30080;SDS011;16902;50.816;12.828;2023-06-05T18:04:40;13.65;;;13.10;;
30080;SDS011;16902;50.816;12.828;2023-06-05T18:09:42;14.48;;;13.88;;
30080;SDS011;16902;50.816;12.828;2023-06-05T18:14:43;13.80;;;13.05;;
30080;SDS011;16902;50.816;12.828;2023-06-05T18:19:45;13.05;;;12.55;;
30080;SDS011;16902;50.816;12.828;2023-06-05T18:24:47;14.23;;;13.63;;
30080;SDS011;16902;50.816;12.828;2023-06-05T18:29:49;14.35;;;13.75;;
30080;SDS011;16902;50.816;12.828;2023-06-05T18:34:51;13.80;;;13.20;;
30080;SDS011;16902;50.816;12.828;2023-06-05T18:39:53;13.65;;;13.05;;
30080;SDS011;16902;50.816;12.828;2023-06-05T18:44:55;14.10;;;13.50;;
30080;SDS011;16902;50.816;12.828;2023-06-05T18:50:00;13.57;;;12.98;;
30080;SDS011;16902;50.816;12.828;2023-06-05T18:55:02;13.77;;;13.18;;
30080;SDS011;16902;50.816;12.828;2023-06-05T19:00:04;13.68;;;13.07;;
30080;SDS011;16902;50.816;12.828;2023-06-05T19:05:07;14.18;;;13.57;;
30080;SDS011;16902;50.816;12.828;2023-06-05T19:10:09;13.38;;;12.77;;
30080;SDS011;16902;50.816;12.828;2023-06-05T19:15:11;13.32;;;12.73;;
30080;SDS011;16902;50.816;12.828;2023-06-05T19:20:13;12.82;;;12.32;;
30080;SDS011;16902;50.816;12.828;2023-06-05T19:25:15;12.65;;;12.15;;
30080;SDS011;16902;50.816;12.828;2023-06-05T19:30:17;13.18;;;12.68;;
30080;SDS011;16902;50.816;12.828;2023-06-05T19:35:18;13.48;;;12.88;;
30080;SDS011;16902;50.816;12.828;2023-06-05T19:40:20;13.35;;;12.75;;
30080;SDS011;16902;50.816;12.828;2023-06-05T19:45:22;12.77;;;12.27;;
30080;SDS011;16902;50.816;12.828;2023-06-05T19:50:24;12.20;;;11.70;;
30080;SDS011;16902;50.816;12.828;2023-06-05T19:55:25;13.27;;;12.68;;
30080;SDS011;16902;50.816;12.828;2023-06-05T20:00:27;12.55;;;12.05;;
30080;SDS011;16902;50.816;12.828;2023-06-05T20:05:29;12.07;;;11.57;;
30080;SDS011;16902;50.816;12.828;2023-06-05T20:10:32;12.43;;;11.82;;
30080;SDS011;16902;50.816;12.828;2023-06-05T20:15:35;11.35;;;10.95;;
30080;SDS011;16902;50.816;12.828;2023-06-05T20:20:38;11.02;;;10.63;;
30080;SDS011;16902;50.816;12.828;2023-06-05T20:25:40;11.98;;;11.48;;
30080;SDS011;16902;50.816;12.828;2023-06-05T20:30:42;11.02;;;10.52;;
30080;SDS011;16902;50.816;12.828;2023-06-05T20:35:44;10.93;;;10.43;;
30080;SDS011;16902;50.816;12.828;2023-06-05T20:40:46;10.60;;;10.18;;
30080;SDS011;16902;50.816;12.828;2023-06-05T20:45:50;10.15;;;9.75;;
30080;SDS011;16902;50.816;12.828;2023-06-05T20:50:54;10.88;;;10.48;;
30080;SDS011;16902;50.816;12.828;2023-06-05T20:55:59;10.43;;;10.02;;
30080;SDS011;16902;50.816;12.828;2023-06-05T21:01:00;10.02;;;9.63;;
30080;SDS011;16902;50.816;12.828;2023-06-05T21:06:02;10.15;;;9.73;;
30080;SDS011;16902;50.816;12.828;2023-06-05T21:11:05;10.90;;;10.40;;
30080;SDS011;16902;50.816;12.828;2023-06-05T21:16:07;10.45;;;10.05;;
30080;SDS011;16902;50.816;12.828;2023-06-05T21:21:09;10.45;;;9.95;;
30080;SDS011;16902;50.816;12.828;2023-06-05T21:26:12;10.65;;;10.25;;
30080;SDS011;16902;50.816;12.828;2023-06-05T21:31:13;10.15;;;9.73;;
30080;SDS011;16902;50.816;12.828;2023-06-05T21:36:15;10.18;;;9.77;;
30080;SDS011;16902;50.816;12.828;2023-06-05T21:41:17;10.35;;;9.95;;
30080;SDS011;16902;50.816;12.828;2023-06-05T21:46:18;10.15;;;9.75;;
30080;SDS011;16902;50.816;12.828;2023-06-05T21:51:20;9.75;;;9.32;;
30080;SDS011;16902;50.816;12.828;2023-06-05T21:56:22;10.15;;;9.65;;
30080;SDS011;16902;50.816;12.828;2023-06-05T22:01:24;9.48;;;9.13;;
30080;SDS011;16902;50.816;12.828;2023-06-05T22:06:25;9.85;;;9.45;;
30080;SDS011;16902;50.816;12.828;2023-06-05T22:11:27;9.80;;;9.40;;
30080;SDS011;16902;50.816;12.828;2023-06-05T22:16:30;9.55;;;9.15;;
30080;SDS011;16902;50.816;12.828;2023-06-05T22:21:39;10.32;;;9.85;;
30080;SDS011;16902;50.816;12.828;2023-06-05T22:26:42;9.20;;;8.82;;
30080;SDS011;16902;50.816;12.828;2023-06-05T22:31:45;8.93;;;8.63;;
30080;SDS011;16902;50.816;12.828;2023-06-05T22:36:46;9.68;;;9.27;;
30080;SDS011;16902;50.816;12.828;2023-06-05T22:41:48;9.15;;;8.85;;
30080;SDS011;16902;50.816;12.828;2023-06-05T22:46:50;9.32;;;8.93;;
30080;SDS011;16902;50.816;12.828;2023-06-05T22:51:54;9.30;;;8.90;;
30080;SDS011;16902;50.816;12.828;2023-06-05T22:56:56;8.95;;;8.65;;
30080;SDS011;16902;50.816;12.828;2023-06-05T23:01:59;9.10;;;8.70;;
30080;SDS011;16902;50.816;12.828;2023-06-05T23:07:00;7.55;;;7.25;;
30080;SDS011;16902;50.816;12.828;2023-06-05T23:12:04;6.80;;;6.55;;
30080;SDS011;16902;50.816;12.828;2023-06-05T23:17:06;7.10;;;6.80;;
30080;SDS011;16902;50.816;12.828;2023-06-05T23:22:08;6.28;;;5.97;;
30080;SDS011;16902;50.816;12.828;2023-06-05T23:27:10;5.93;;;5.72;;
30080;SDS011;16902;50.816;12.828;2023-06-05T23:32:12;4.70;;;4.50;;
30080;SDS011;16902;50.816;12.828;2023-06-05T23:37:13;5.38;;;4.85;;
30080;SDS011;16902;50.816;12.828;2023-06-05T23:42:17;4.68;;;4.47;;
30080;SDS011;16902;50.816;12.828;2023-06-05T23:47:23;4.70;;;4.50;;
30080;SDS011;16902;50.816;12.828;2023-06-05T23:52:25;4.78;;;4.50;;
30080;SDS011;16902;50.816;12.828;2023-06-05T23:57:27;4.20;;;4.00;;
